createdAt,value
2024-05-09T00:00:39.574Z,93.40
2024-05-09T00:03:08.378Z,93.10
2024-05-09T00:05:36.912Z,93.20
2024-05-09T00:08:04.456Z,92.60
2024-05-09T00:10:36.499Z,92.40
2024-05-09T00:13:06.972Z,92.30
2024-05-09T00:15:34.936Z,92.30
2024-05-09T00:18:03.254Z,93.70
2024-05-09T00:20:37.999Z,94.00
2024-05-09T00:23:09.157Z,95.10
2024-05-09T00:25:37.382Z,94.60
2024-05-09T00:28:04.863Z,95.00
2024-05-09T00:30:35.321Z,95.70
2024-05-09T00:33:08.902Z,96.80
2024-05-09T00:35:37.424Z,95.80
2024-05-09T00:38:04.946Z,95.90
2024-05-09T00:40:40.270Z,96.40
2024-05-09T00:43:10.819Z,98.00
2024-05-09T00:45:38.093Z,97.80
2024-05-09T00:48:08.174Z,98.60
2024-05-09T00:50:38.824Z,99.60
2024-05-09T00:53:07.704Z,99.90
2024-05-09T00:55:37.455Z,99.20
2024-05-09T00:58:05.537Z,98.70
2024-05-09T01:00:38.907Z,99.40
2024-05-09T01:03:13.225Z,99.30
2024-05-09T01:05:44.847Z,99.60
2024-05-09T01:08:12.501Z,99.50
2024-05-09T01:10:43.747Z,99.90
2024-05-09T01:13:12.071Z,99.90
2024-05-09T01:15:39.047Z,99.90
2024-05-09T01:18:12.141Z,99.90
2024-05-09T01:20:43.287Z,99.90
2024-05-09T01:23:14.130Z,99.90
2024-05-09T01:25:43.354Z,99.90
2024-05-09T01:28:10.819Z,99.90
2024-05-09T01:30:38.509Z,99.90
2024-05-09T01:33:08.763Z,99.90
2024-05-09T01:35:38.934Z,99.90
2024-05-09T01:38:06.974Z,99.90
2024-05-09T01:40:38.573Z,99.90
2024-05-09T01:43:09.222Z,99.90
2024-05-09T01:45:37.299Z,99.90
2024-05-09T01:48:04.944Z,99.90
2024-05-09T01:50:38.371Z,99.90
2024-05-09T01:53:13.964Z,99.90
2024-05-09T01:55:41.659Z,99.90
2024-05-09T01:58:09.631Z,99.90
2024-05-09T02:00:40.795Z,99.90
2024-05-09T02:03:12.444Z,99.90
2024-05-09T02:05:43.089Z,99.90
2024-05-09T02:08:15.136Z,99.90
2024-05-09T02:10:43.600Z,99.90
2024-05-09T02:13:10.735Z,99.90
2024-05-09T02:15:37.743Z,99.90
2024-05-09T02:18:05.296Z,99.90
2024-05-09T02:20:36.379Z,99.90
2024-05-09T02:23:06.055Z,99.90
2024-05-09T02:25:33.647Z,99.90
2024-05-09T02:28:00.663Z,99.90
2024-05-09T02:30:37.920Z,99.90
2024-05-09T02:33:09.183Z,99.90
2024-05-09T02:35:37.219Z,99.90
2024-05-09T02:38:04.735Z,99.90
2024-05-09T02:40:37.011Z,99.90
2024-05-09T02:43:06.913Z,99.90
2024-05-09T02:45:34.016Z,99.90
2024-05-09T02:48:02.059Z,99.90
2024-05-09T02:50:36.736Z,99.90
2024-05-09T02:53:06.932Z,99.90
2024-05-09T02:55:34.418Z,99.90
2024-05-09T02:58:01.404Z,99.90
2024-05-09T03:00:36.843Z,99.90
2024-05-09T03:03:08.774Z,99.90
2024-05-09T03:05:37.482Z,99.90
2024-05-09T03:08:04.888Z,99.90
2024-05-09T03:10:36.252Z,99.90
2024-05-09T03:13:14.143Z,99.90
2024-05-09T03:15:42.728Z,99.90
2024-05-09T03:18:10.696Z,99.90
2024-05-09T03:20:38.403Z,99.90
2024-05-09T03:23:08.169Z,99.90
2024-05-09T03:25:36.153Z,99.90
2024-05-09T03:28:03.659Z,99.90
2024-05-09T03:30:39.433Z,99.90
2024-05-09T03:33:18.626Z,99.90
2024-05-09T03:35:47.652Z,99.90
2024-05-09T03:38:15.083Z,99.90
2024-05-09T03:40:47.111Z,99.90
2024-05-09T03:43:14.618Z,99.90
2024-05-09T03:45:43.179Z,99.90
2024-05-09T03:48:10.564Z,99.90
2024-05-09T03:50:38.065Z,99.90
2024-05-09T03:53:05.600Z,99.90
2024-05-09T03:55:32.611Z,99.90
2024-05-09T03:57:59.684Z,99.90
2024-05-09T04:00:35.121Z,99.90
2024-05-09T04:03:08.499Z,99.90
2024-05-09T04:05:40.011Z,99.90
2024-05-09T04:08:07.818Z,99.90
2024-05-09T04:10:35.521Z,99.90
2024-05-09T04:13:03.920Z,99.90
2024-05-09T04:15:31.446Z,99.90
2024-05-09T04:17:58.856Z,99.90
2024-05-09T04:22:55.873Z,99.90
2024-05-09T04:25:22.824Z,99.90
2024-05-09T04:27:49.743Z,99.90
2024-05-09T04:30:25.499Z,99.90
2024-05-09T04:32:57.966Z,99.90
2024-05-09T04:35:25.126Z,99.90
2024-05-09T04:37:52.216Z,99.90
2024-05-09T04:40:27.810Z,99.90
2024-05-09T04:42:59.743Z,99.90
2024-05-09T04:45:26.635Z,99.90
2024-05-09T04:47:54.460Z,99.90
2024-05-09T04:50:29.990Z,99.90
2024-05-09T04:53:03.383Z,99.90
2024-05-09T04:55:30.606Z,99.90
2024-05-09T04:57:57.668Z,99.90
2024-05-09T05:00:32.688Z,99.90
2024-05-09T05:03:07.033Z,99.90
2024-05-09T05:05:37.800Z,99.90
2024-05-09T05:08:05.575Z,99.90
2024-05-09T05:10:36.272Z,99.90
2024-05-09T05:13:18.366Z,99.90
2024-05-09T05:15:47.317Z,99.90
2024-05-09T05:18:17.942Z,99.90
2024-05-09T05:20:45.535Z,99.90
2024-05-09T05:23:14.141Z,99.90
2024-05-09T05:25:45.098Z,99.90
2024-05-09T05:28:12.210Z,99.90
2024-05-09T05:30:41.278Z,99.90
2024-05-09T05:33:11.538Z,99.90
2024-05-09T05:35:39.082Z,99.90
2024-05-09T05:38:10.450Z,99.90
2024-05-09T05:40:38.894Z,99.90
2024-05-09T05:43:10.942Z,99.90
2024-05-09T05:45:38.790Z,99.90
2024-05-09T05:48:07.383Z,99.90
2024-05-09T05:50:37.516Z,99.90
2024-05-09T05:53:07.389Z,99.90
2024-05-09T05:55:35.383Z,99.90
2024-05-09T05:58:02.896Z,99.90
2024-05-09T06:00:37.672Z,99.90
2024-05-09T06:03:07.317Z,99.50
2024-05-09T06:05:36.185Z,98.40
2024-05-09T06:08:03.245Z,98.00
2024-05-09T06:10:37.619Z,98.20
2024-05-09T06:13:07.378Z,97.80
2024-05-09T06:15:34.501Z,98.40
2024-05-09T06:18:01.991Z,98.90
2024-05-09T06:20:35.768Z,97.10
2024-05-09T06:23:06.762Z,96.50
2024-05-09T06:25:35.095Z,96.20
2024-05-09T06:28:02.604Z,96.60
2024-05-09T06:30:37.129Z,95.60
2024-05-09T06:33:10.807Z,94.70
2024-05-09T06:35:39.717Z,94.90
2024-05-09T06:38:09.539Z,94.00
2024-05-09T06:40:39.988Z,93.60
2024-05-09T06:43:17.562Z,93.70
2024-05-09T06:45:50.345Z,91.60
2024-05-09T06:48:22.107Z,90.10
2024-05-09T06:50:50.331Z,90.30
2024-05-09T06:53:20.486Z,89.40
2024-05-09T06:55:47.552Z,88.80
2024-05-09T06:58:14.565Z,89.80
2024-05-09T07:00:42.403Z,84.10
2024-05-09T07:03:16.485Z,84.50
2024-05-09T07:05:46.639Z,82.00
2024-05-09T07:08:14.717Z,81.20
2024-05-09T07:10:41.902Z,80.90
2024-05-09T07:13:09.905Z,80.00
2024-05-09T07:15:37.106Z,78.10
2024-05-09T07:18:22.065Z,79.70
2024-05-09T07:20:50.157Z,73.00
2024-05-09T07:23:18.072Z,72.70
2024-05-09T07:25:45.392Z,72.00
2024-05-09T07:28:18.017Z,70.40
2024-05-09T07:30:45.270Z,70.30
2024-05-09T07:33:21.341Z,69.50
2024-05-09T07:35:49.931Z,69.00
2024-05-09T07:38:16.911Z,64.20
2024-05-09T07:40:43.849Z,67.80
2024-05-09T07:43:14.459Z,66.20
2024-05-09T07:45:50.717Z,65.00
2024-05-09T07:52:37.609Z,61.40
2024-05-09T07:53:47.570Z,64.00
2024-05-09T07:56:18.919Z,62.60
2024-05-09T07:58:49.677Z,58.30
2024-05-09T08:01:16.710Z,57.90
2024-05-09T08:03:43.927Z,57.70
2024-05-09T08:06:10.998Z,57.80
2024-05-09T08:08:37.962Z,54.80
2024-05-09T08:11:06.594Z,56.30
2024-05-09T08:13:33.832Z,53.90
2024-05-09T08:16:01.080Z,53.90
2024-05-09T08:18:28.208Z,54.60
2024-05-09T08:20:55.364Z,55.60
2024-05-09T08:23:23.746Z,55.60
2024-05-09T08:25:51.111Z,50.80
2024-05-09T08:28:18.101Z,52.40
2024-05-09T08:30:45.315Z,50.80
2024-05-09T08:33:12.480Z,48.10
2024-05-09T08:35:39.461Z,50.30
2024-05-09T08:38:07.293Z,48.30
2024-05-09T08:40:36.884Z,45.80
2024-05-09T08:43:12.480Z,45.10
2024-05-09T08:45:44.264Z,44.30
2024-05-09T08:48:14.798Z,46.20
2024-05-09T08:50:43.279Z,46.60
2024-05-09T08:53:10.590Z,44.20
2024-05-09T08:55:41.571Z,45.00
2024-05-09T08:58:15.581Z,46.40
2024-05-09T09:00:45.189Z,45.50
2024-05-09T09:03:25.124Z,44.50
2024-05-09T09:06:15.127Z,40.20
2024-05-09T09:08:42.145Z,42.70
2024-05-09T09:11:09.176Z,38.70
2024-05-09T09:13:36.116Z,39.00
2024-05-09T09:16:03.750Z,39.40
2024-05-09T09:18:31.296Z,38.10
2024-05-09T09:20:58.504Z,38.10
2024-05-09T09:23:29.821Z,38.30
2024-05-09T09:26:00.927Z,38.10
2024-05-09T09:28:28.268Z,36.40
2024-05-09T09:31:01.577Z,36.70
2024-05-09T09:33:31.508Z,36.90
2024-05-09T09:35:58.662Z,35.90
2024-05-09T09:38:29.375Z,35.10
2024-05-09T09:40:56.430Z,36.50
2024-05-09T09:43:23.832Z,37.50
2024-05-09T09:45:53.028Z,35.40
2024-05-09T09:48:22.905Z,34.80
2024-05-09T09:50:52.433Z,33.10
2024-05-09T09:53:20.096Z,33.60
2024-05-09T09:55:48.290Z,33.40
2024-05-09T09:58:17.859Z,32.70
2024-05-09T10:00:45.621Z,31.70
2024-05-09T10:03:12.852Z,32.00
2024-05-09T10:05:43.075Z,32.50
2024-05-09T10:08:13.490Z,31.70
2024-05-09T10:10:45.531Z,32.00
2024-05-09T10:13:12.729Z,30.50
2024-05-09T10:15:57.867Z,30.70
2024-05-09T10:18:35.816Z,32.10
2024-05-09T10:21:02.877Z,33.10
2024-05-09T10:23:32.427Z,32.60
2024-05-09T10:26:00.358Z,31.60
2024-05-09T10:28:31.928Z,30.00
2024-05-09T10:31:10.132Z,30.10
2024-05-09T10:33:47.942Z,30.40
2024-05-09T10:36:23.230Z,31.10
2024-05-09T10:38:51.523Z,31.20
2024-05-09T10:41:19.217Z,31.60
2024-05-09T10:43:47.563Z,30.10
2024-05-09T10:46:15.289Z,31.20
2024-05-09T10:48:44.183Z,29.60
2024-05-09T10:51:11.721Z,29.50
2024-05-09T10:53:44.858Z,29.80
2024-05-09T10:56:14.010Z,30.20
2024-05-09T10:58:40.999Z,29.90
2024-05-09T11:01:10.013Z,29.10
2024-05-09T11:03:38.146Z,30.70
2024-05-09T11:06:06.519Z,29.20
2024-05-09T11:08:35.111Z,29.70
2024-05-09T11:11:07.143Z,28.80
2024-05-09T11:13:36.489Z,29.20
2024-05-09T11:16:05.218Z,29.10
2024-05-09T11:18:37.868Z,29.30
2024-05-09T11:21:12.388Z,27.70
2024-05-09T11:23:39.843Z,26.60
2024-05-09T11:26:07.317Z,27.90
2024-05-09T11:28:34.233Z,28.40
2024-05-09T11:31:09.485Z,27.20
2024-05-09T11:33:43.598Z,27.40
2024-05-09T11:36:11.013Z,27.20
2024-05-09T11:38:38.046Z,27.50
2024-05-09T11:41:05.738Z,27.70
2024-05-09T11:43:33.508Z,26.80
2024-05-09T11:46:01.133Z,26.70
2024-05-09T11:48:28.705Z,26.30
2024-05-09T11:50:56.484Z,26.40
2024-05-09T11:53:26.911Z,26.00
2024-05-09T11:55:53.941Z,25.50
2024-05-09T11:58:22.922Z,24.70
2024-05-09T12:00:50.292Z,24.80
2024-05-09T12:03:17.318Z,23.90
2024-05-09T12:05:44.551Z,24.70
2024-05-09T12:08:12.442Z,23.50
2024-05-09T12:10:39.537Z,23.30
2024-05-09T12:13:07.439Z,23.20
2024-05-09T12:15:38.454Z,21.60
2024-05-09T12:18:07.603Z,21.00
2024-05-09T12:20:38.543Z,21.20
2024-05-09T12:23:08.682Z,22.10
2024-05-09T12:25:37.783Z,21.60
2024-05-09T12:28:05.376Z,23.40
2024-05-09T12:30:37.534Z,21.90
2024-05-09T12:33:12.205Z,23.50
2024-05-09T12:35:40.190Z,21.80
2024-05-09T12:38:07.268Z,21.90
2024-05-09T12:40:37.553Z,22.20
2024-05-09T12:43:10.264Z,21.50
2024-05-09T12:45:38.612Z,22.10
2024-05-09T12:48:08.436Z,22.40
2024-05-09T12:50:36.413Z,23.20
2024-05-09T12:53:04.638Z,23.20
2024-05-09T12:55:43.831Z,22.10
2024-05-09T12:58:17.579Z,22.20
2024-05-09T13:00:45.324Z,22.40
2024-05-09T13:03:12.702Z,22.40
2024-05-09T13:05:44.815Z,22.50
2024-05-09T13:08:12.826Z,23.80
2024-05-09T13:10:40.045Z,22.70
2024-05-09T13:13:07.193Z,20.00
2024-05-09T13:15:37.365Z,20.70
2024-05-09T13:18:05.567Z,21.30
2024-05-09T13:20:35.207Z,21.00
2024-05-09T13:23:04.407Z,21.40
2024-05-09T13:25:31.763Z,22.10
2024-05-09T13:27:58.917Z,20.10
2024-05-09T13:30:34.336Z,21.30
2024-05-09T13:33:07.166Z,20.80
2024-05-09T13:35:35.757Z,21.20
2024-05-09T13:38:03.929Z,20.10
2024-05-09T13:40:34.620Z,19.40
2024-05-09T13:43:06.672Z,19.60
2024-05-09T13:45:34.329Z,20.30
2024-05-09T13:48:02.822Z,19.10
2024-05-09T13:50:34.623Z,19.60
2024-05-09T13:53:06.021Z,19.30
2024-05-09T13:55:34.142Z,17.80
2024-05-09T13:58:01.865Z,17.00
2024-05-09T14:00:41.818Z,17.10
2024-05-09T14:03:14.664Z,17.70
2024-05-09T14:05:42.156Z,17.90
2024-05-09T14:08:09.680Z,16.90
2024-05-09T14:10:43.499Z,16.40
2024-05-09T14:13:11.204Z,16.60
2024-05-09T14:15:38.649Z,16.30
2024-05-09T14:18:07.041Z,15.80
2024-05-09T14:20:34.964Z,15.80
2024-05-09T14:23:02.022Z,15.90
2024-05-09T14:25:30.458Z,16.10
2024-05-09T14:28:00.482Z,17.10
2024-05-09T14:30:34.864Z,15.70
2024-05-09T14:33:06.226Z,15.70
2024-05-09T14:35:34.178Z,16.30
2024-05-09T14:38:01.238Z,14.40
2024-05-09T14:40:38.814Z,14.50
2024-05-09T14:43:11.415Z,14.70
2024-05-09T14:45:38.699Z,15.40
2024-05-09T14:48:06.890Z,15.70
2024-05-09T14:50:38.238Z,16.20
2024-05-09T14:53:07.998Z,14.90
2024-05-09T14:55:37.627Z,14.70
2024-05-09T14:58:12.674Z,15.70
2024-05-09T15:00:46.168Z,15.00
2024-05-09T15:03:17.345Z,14.90
2024-05-09T15:05:45.198Z,15.60
2024-05-09T15:08:12.268Z,15.80
2024-05-09T15:10:39.327Z,16.50
2024-05-09T15:13:08.219Z,17.60
2024-05-09T15:15:37.264Z,17.80
2024-05-09T15:18:07.721Z,17.80
2024-05-09T15:20:37.099Z,16.70
2024-05-09T15:23:06.553Z,16.80
2024-05-09T15:25:34.844Z,16.40
2024-05-09T15:28:02.118Z,17.40
2024-05-09T15:30:32.195Z,16.30
2024-05-09T15:33:03.397Z,16.20
2024-05-09T15:35:30.730Z,16.40
2024-05-09T15:37:57.656Z,16.70
2024-05-09T15:40:35.131Z,17.50
2024-05-09T15:43:07.449Z,16.80
2024-05-09T15:45:34.967Z,18.20
2024-05-09T15:48:03.422Z,18.60
2024-05-09T15:50:37.465Z,19.00
2024-05-09T15:53:09.010Z,19.00
2024-05-09T15:55:36.925Z,19.10
2024-05-09T15:58:05.166Z,18.70
2024-05-09T16:00:38.307Z,18.80
2024-05-09T16:03:09.530Z,19.40
2024-05-09T16:05:37.187Z,18.60
2024-05-09T16:08:05.172Z,19.10
2024-05-09T16:10:34.012Z,19.60
2024-05-09T16:13:02.651Z,19.90
2024-05-09T16:15:30.470Z,20.10
2024-05-09T16:17:57.667Z,20.50
2024-05-09T16:20:34.400Z,20.30
2024-05-09T16:23:06.950Z,20.90
2024-05-09T16:25:33.949Z,20.90
2024-05-09T16:28:01.909Z,21.00
2024-05-09T16:30:34.722Z,21.20
2024-05-09T16:33:04.600Z,21.20
2024-05-09T16:35:32.400Z,21.70
2024-05-09T16:38:01.667Z,21.70
2024-05-09T16:40:36.367Z,21.80
2024-05-09T16:43:07.603Z,22.20
2024-05-09T16:45:35.177Z,21.90
2024-05-09T16:48:03.206Z,22.30
2024-05-09T16:50:33.957Z,22.30
2024-05-09T16:53:03.980Z,22.40
2024-05-09T16:55:31.447Z,22.80
2024-05-09T16:57:58.953Z,22.90
2024-05-09T17:00:36.171Z,22.90
2024-05-09T17:03:10.621Z,23.10
2024-05-09T17:05:38.732Z,23.30
2024-05-09T17:08:06.498Z,23.10
2024-05-09T17:10:35.227Z,23.10
2024-05-09T17:13:04.656Z,23.30
2024-05-09T17:15:33.415Z,23.30
2024-05-09T17:18:01.428Z,23.10
2024-05-09T17:20:33.547Z,23.20
2024-05-09T17:23:04.829Z,23.20
2024-05-09T17:25:32.618Z,23.20
2024-05-09T17:28:06.438Z,23.00
2024-05-09T17:30:36.861Z,22.90
2024-05-09T17:33:07.490Z,23.10
2024-05-09T17:35:36.338Z,22.90
2024-05-09T17:38:04.052Z,22.90
2024-05-09T17:40:34.945Z,23.00
2024-05-09T17:43:05.274Z,22.90
2024-05-09T17:45:33.124Z,23.10
2024-05-09T17:48:00.943Z,23.00
2024-05-09T17:50:35.036Z,23.20
2024-05-09T17:53:07.299Z,23.20
2024-05-09T17:55:34.986Z,23.40
2024-05-09T17:58:02.472Z,23.60
2024-05-09T18:00:37.465Z,23.60
2024-05-09T18:03:08.851Z,24.00
2024-05-09T18:05:37.277Z,23.90
2024-05-09T18:08:06.169Z,24.20
2024-05-09T18:10:37.406Z,24.40
2024-05-09T18:13:08.328Z,24.50
2024-05-09T18:15:35.948Z,24.50
2024-05-09T18:18:03.838Z,24.50
2024-05-09T18:20:40.873Z,24.60
2024-05-09T18:23:13.157Z,24.80
2024-05-09T18:25:40.383Z,24.90
2024-05-09T18:28:07.828Z,24.90
2024-05-09T18:30:36.704Z,25.20
2024-05-09T18:33:06.813Z,25.40
2024-05-09T18:35:35.280Z,25.60
2024-05-09T18:38:03.031Z,25.80
2024-05-09T18:40:34.496Z,26.10
2024-05-09T18:43:06.471Z,26.20
2024-05-09T18:45:35.535Z,26.70
2024-05-09T18:48:05.134Z,26.80
2024-05-09T18:50:37.240Z,26.80
2024-05-09T18:53:07.065Z,27.10
2024-05-09T18:55:34.078Z,26.80
2024-05-09T18:58:01.326Z,27.10
2024-05-09T19:00:34.686Z,27.30
2024-05-09T19:03:09.234Z,27.50
2024-05-09T19:05:39.019Z,27.40
2024-05-09T19:08:07.448Z,27.70
2024-05-09T19:10:35.858Z,27.90
2024-05-09T19:13:08.633Z,28.10
2024-05-09T19:15:39.445Z,28.60
2024-05-09T19:18:07.449Z,28.80
2024-05-09T19:20:36.247Z,28.80
2024-05-09T19:23:05.633Z,28.80
2024-05-09T19:25:33.627Z,29.20
2024-05-09T19:28:01.207Z,29.20
2024-05-09T19:30:37.350Z,29.50
2024-05-09T19:33:09.191Z,29.60
2024-05-09T19:35:36.740Z,30.20
2024-05-09T19:38:04.338Z,31.80
2024-05-09T19:40:33.727Z,31.50
2024-05-09T19:43:03.212Z,32.80
2024-05-09T19:45:32.354Z,32.00
2024-05-09T19:47:59.539Z,32.90
2024-05-09T19:50:32.906Z,32.10
2024-05-09T19:53:08.306Z,32.80
2024-05-09T19:55:35.486Z,34.30
2024-05-09T19:58:05.335Z,33.60
2024-05-09T20:00:39.932Z,33.50
2024-05-09T20:03:09.762Z,35.30
2024-05-09T20:05:37.879Z,34.60
2024-05-09T20:08:05.960Z,34.10
2024-05-09T20:10:35.307Z,34.70
2024-05-09T20:13:04.594Z,34.40
2024-05-09T20:15:33.714Z,34.70
2024-05-09T20:18:00.792Z,35.10
2024-05-09T20:20:35.958Z,35.10
2024-05-09T20:23:06.876Z,35.60
2024-05-09T20:25:33.787Z,35.80
2024-05-09T20:28:00.887Z,35.60
2024-05-09T20:30:32.299Z,36.00
2024-05-09T20:33:02.961Z,36.30
2024-05-09T20:35:34.602Z,36.70
2024-05-09T20:38:03.034Z,37.40
2024-05-09T20:40:34.747Z,37.20
2024-05-09T20:43:05.438Z,37.80
2024-05-09T20:45:32.816Z,38.40
2024-05-09T20:48:00.195Z,39.00
2024-05-09T20:50:36.196Z,38.90
2024-05-09T20:53:09.490Z,39.90
2024-05-09T20:55:36.791Z,40.10
2024-05-09T20:58:03.929Z,40.80
2024-05-09T21:00:39.252Z,42.10
2024-05-09T21:03:10.289Z,41.60
2024-05-09T21:05:37.573Z,42.80
2024-05-09T21:08:04.891Z,43.20
2024-05-09T21:10:33.553Z,44.10
2024-05-09T21:13:03.120Z,44.80
2024-05-09T21:15:31.496Z,45.80
2024-05-09T21:17:58.713Z,46.20
2024-05-09T21:20:31.151Z,47.70
2024-05-09T21:22:59.829Z,47.10
2024-05-09T21:25:26.843Z,48.10
2024-05-09T21:27:53.951Z,48.30
2024-05-09T21:30:31.936Z,48.20
2024-05-09T21:33:09.806Z,49.80
2024-05-09T21:35:38.279Z,49.80
2024-05-09T21:38:05.772Z,50.60
2024-05-09T21:40:35.290Z,49.90
2024-05-09T21:43:04.757Z,50.30
2024-05-09T21:45:32.436Z,52.80
2024-05-09T21:47:59.683Z,56.30
2024-05-09T21:50:35.463Z,56.50
2024-05-09T21:53:06.794Z,58.10
2024-05-09T21:55:34.027Z,61.20
2024-05-09T21:58:01.187Z,61.00
2024-05-09T22:00:35.485Z,61.70
2024-05-09T22:03:05.868Z,64.10
2024-05-09T22:05:33.149Z,67.40
2024-05-09T22:08:00.828Z,69.40
2024-05-09T22:10:33.757Z,68.50
2024-05-09T22:13:04.019Z,72.20
2024-05-09T22:15:35.732Z,73.40
2024-05-09T22:18:03.811Z,73.80
2024-05-09T22:20:36.886Z,76.60
2024-05-09T22:23:06.428Z,77.60
2024-05-09T22:25:33.777Z,79.20
2024-05-09T22:28:01.985Z,81.30
2024-05-09T22:32:59.181Z,76.60
2024-05-09T22:35:26.265Z,76.70
2024-05-09T22:37:53.480Z,76.80
2024-05-09T22:40:29.024Z,80.10
2024-05-09T22:43:06.048Z,83.10
2024-05-09T22:45:33.217Z,86.40
2024-05-09T22:48:00.491Z,87.30
2024-05-09T22:50:32.815Z,90.00
2024-05-09T22:53:00.751Z,88.70
2024-05-09T22:55:27.868Z,84.40
2024-05-09T22:57:54.914Z,85.50
2024-05-09T23:00:30.803Z,88.50
2024-05-09T23:03:01.093Z,90.50
2024-05-09T23:05:28.539Z,91.00
2024-05-09T23:07:55.746Z,91.70
2024-05-09T23:10:30.903Z,92.40
2024-05-09T23:13:02.351Z,92.80
2024-05-09T23:15:29.723Z,93.60
2024-05-09T23:17:57.657Z,94.50
2024-05-09T23:20:33.507Z,95.30
2024-05-09T23:23:05.671Z,96.30
2024-05-09T23:25:32.705Z,96.70
2024-05-09T23:27:59.765Z,97.20
2024-05-09T23:30:37.044Z,97.70
2024-05-09T23:33:07.418Z,97.50
2024-05-09T23:35:34.701Z,97.60
2024-05-09T23:38:01.779Z,98.00
2024-05-09T23:40:37.298Z,98.30
2024-05-09T23:43:07.726Z,98.20
2024-05-09T23:45:35.075Z,98.80
2024-05-09T23:48:02.803Z,99.90
2024-05-09T23:50:35.710Z,99.90
2024-05-09T23:53:06.430Z,99.90
2024-05-09T23:55:34.340Z,99.90
2024-05-09T23:58:01.398Z,99.90
